sensor_id;sensor_type;location;lat;lon;timestamp;pressure;altitude;pressure_sealevel;temperature;humidity
70458;BME280;57919;56.194;95.716;2022-09-01T00:09:10;98611.88;;;13.48;77.83
70458;BME280;57919;56.194;95.716;2022-09-01T00:19:12;98626.47;;;13.47;77.66
70458;BME280;57919;56.194;95.716;2022-09-01T00:29:15;98602.34;;;13.44;77.78
70458;BME280;57919;56.194;95.716;2022-09-01T00:39:17;98613.75;;;13.47;78.13
70458;BME280;57919;56.194;95.716;2022-09-01T00:49:29;98621.56;;;13.58;77.89
70458;BME280;57919;56.194;95.716;2022-09-01T00:59:32;98636.69;;;13.61;77.90
70458;BME280;57919;56.194;95.716;2022-09-01T01:09:40;98628.19;;;13.64;77.69
70458;BME280;57919;56.194;95.716;2022-09-01T01:19:46;98643.81;;;13.78;77.45
70458;BME280;57919;56.194;95.716;2022-09-01T01:30:09;98654.69;;;13.86;77.79
70458;BME280;57919;56.194;95.716;2022-09-01T01:40:15;98634.31;;;13.82;77.55
70458;BME280;57919;56.194;95.716;2022-09-01T01:50:20;98659.09;;;14.12;77.30
70458;BME280;57919;56.194;95.716;2022-09-01T02:00:26;98670.28;;;14.41;77.10
70458;BME280;57919;56.194;95.716;2022-09-01T02:10:30;98675.53;;;14.67;76.40
70458;BME280;57919;56.194;95.716;2022-09-01T02:20:33;98677.69;;;14.80;76.28
70458;BME280;57919;56.194;95.716;2022-09-01T02:30:35;98684.31;;;14.85;75.84
70458;BME280;57919;56.194;95.716;2022-09-01T02:40:40;98663.75;;;15.45;74.63
70458;BME280;57919;56.194;95.716;2022-09-01T02:50:45;98667.16;;;16.53;71.06
70458;BME280;57919;56.194;95.716;2022-09-01T03:00:52;98683.00;;;16.72;71.09
70458;BME280;57919;56.194;95.716;2022-09-01T03:10:54;98696.13;;;17.06;69.85
70458;BME280;57919;56.194;95.716;2022-09-01T03:20:56;98691.75;;;17.27;69.56
70458;BME280;57919;56.194;95.716;2022-09-01T03:30:59;98704.69;;;18.54;67.19
70458;BME280;57919;56.194;95.716;2022-09-01T03:41:03;98711.91;;;19.65;64.59
70458;BME280;57919;56.194;95.716;2022-09-01T03:51:06;98708.34;;;19.72;64.26
70458;BME280;57919;56.194;95.716;2022-09-01T04:01:11;98705.00;;;19.89;64.29
70458;BME280;57919;56.194;95.716;2022-09-01T04:11:16;98719.00;;;20.14;61.76
70458;BME280;57919;56.194;95.716;2022-09-01T04:21:24;98714.66;;;19.65;62.95
70458;BME280;57919;56.194;95.716;2022-09-01T04:31:26;98707.56;;;19.43;63.32
70458;BME280;57919;56.194;95.716;2022-09-01T04:41:31;98698.72;;;19.48;62.80
70458;BME280;57919;56.194;95.716;2022-09-01T04:51:39;98694.06;;;20.03;62.32
70458;BME280;57919;56.194;95.716;2022-09-01T05:01:42;98694.28;;;20.27;60.83
70458;BME280;57919;56.194;95.716;2022-09-01T05:11:45;98693.47;;;20.33;61.46
70458;BME280;57919;56.194;95.716;2022-09-01T05:22:00;98687.34;;;20.78;60.59
70458;BME280;57919;56.194;95.716;2022-09-01T05:32:04;98685.47;;;21.49;57.42
70458;BME280;57919;56.194;95.716;2022-09-01T05:42:13;98689.66;;;20.81;58.37
70458;BME280;57919;56.194;95.716;2022-09-01T05:52:15;98683.72;;;20.11;59.44
70458;BME280;57919;56.194;95.716;2022-09-01T06:02:19;98680.63;;;19.53;60.99
70458;BME280;57919;56.194;95.716;2022-09-01T06:12:22;98670.16;;;18.88;61.89
70458;BME280;57919;56.194;95.716;2022-09-01T06:22:27;98688.16;;;18.69;63.07
70458;BME280;57919;56.194;95.716;2022-09-01T06:32:30;98690.31;;;18.03;64.61
70458;BME280;57919;56.194;95.716;2022-09-01T06:42:35;98699.00;;;17.34;66.04
70458;BME280;57919;56.194;95.716;2022-09-01T06:52:38;98704.13;;;17.08;67.06
70458;BME280;57919;56.194;95.716;2022-09-01T07:02:42;98703.94;;;16.95;67.30
70458;BME280;57919;56.194;95.716;2022-09-01T07:12:59;98695.41;;;16.60;68.47
70458;BME280;57919;56.194;95.716;2022-09-01T07:23:02;98685.69;;;16.43;69.49
70458;BME280;57919;56.194;95.716;2022-09-01T07:33:04;98683.72;;;16.14;70.19
70458;BME280;57919;56.194;95.716;2022-09-01T07:43:16;98683.94;;;15.90;70.91
70458;BME280;57919;56.194;95.716;2022-09-01T07:53:42;98690.13;;;15.83;71.34
70458;BME280;57919;56.194;95.716;2022-09-01T08:03:52;98696.25;;;15.86;71.47
70458;BME280;57919;56.194;95.716;2022-09-01T08:14:13;98714.13;;;15.88;71.69
70458;BME280;57919;56.194;95.716;2022-09-01T08:24:14;98721.03;;;15.99;71.79
70458;BME280;57919;56.194;95.716;2022-09-01T08:34:16;98720.25;;;15.90;71.69
70458;BME280;57919;56.194;95.716;2022-09-01T09:05:21;98683.44;;;15.63;73.37
70458;BME280;57919;56.194;95.716;2022-09-01T09:25:36;98677.13;;;15.32;74.73
70458;BME280;57919;56.194;95.716;2022-09-01T09:35:44;98677.47;;;15.29;75.41
70458;BME280;57919;56.194;95.716;2022-09-01T09:45:47;98665.16;;;15.10;75.49
70458;BME280;57919;56.194;95.716;2022-09-01T09:56:16;98725.09;;;15.10;75.25
70458;BME280;57919;56.194;95.716;2022-09-01T10:06:29;98698.34;;;15.13;75.95
70458;BME280;57919;56.194;95.716;2022-09-01T10:16:34;98673.34;;;15.02;76.70
70458;BME280;57919;56.194;95.716;2022-09-01T10:26:40;98675.53;;;14.67;77.10
70458;BME280;57919;56.194;95.716;2022-09-01T10:36:45;98686.53;;;14.82;76.86
70458;BME280;57919;56.194;95.716;2022-09-01T10:46:49;98682.78;;;14.83;77.41
70458;BME280;57919;56.194;95.716;2022-09-01T10:56:51;98680.53;;;14.95;77.32
70458;BME280;57919;56.194;95.716;2022-09-01T11:37:56;98684.75;;;15.36;76.66
70458;BME280;57919;56.194;95.716;2022-09-01T11:48:07;98689.72;;;15.33;76.21
70458;BME280;57919;56.194;95.716;2022-09-01T12:08:40;98689.91;;;14.92;76.76
70458;BME280;57919;56.194;95.716;2022-09-01T12:18:51;98705.31;;;14.61;77.79
70458;BME280;57919;56.194;95.716;2022-09-01T12:28:55;98700.06;;;14.43;78.31
70458;BME280;57919;56.194;95.716;2022-09-01T12:49:24;98702.97;;;14.25;79.07
70458;BME280;57919;56.194;95.716;2022-09-01T12:59:26;98689.88;;;14.12;79.39
70458;BME280;57919;56.194;95.716;2022-09-01T13:09:28;98701.78;;;14.03;79.73
70458;BME280;57919;56.194;95.716;2022-09-01T13:19:30;98707.38;;;14.02;79.87
70458;BME280;57919;56.194;95.716;2022-09-01T13:29:32;98694.97;;;13.91;80.00
70458;BME280;57919;56.194;95.716;2022-09-01T13:39:34;98707.22;;;13.87;80.25
70458;BME280;57919;56.194;95.716;2022-09-01T13:49:36;98720.22;;;13.51;80.30
70458;BME280;57919;56.194;95.716;2022-09-01T13:59:38;98732.78;;;12.76;80.68
70458;BME280;57919;56.194;95.716;2022-09-01T14:09:42;98708.88;;;12.45;81.03
70458;BME280;57919;56.194;95.716;2022-09-01T14:19:51;98678.75;;;12.05;81.82
70458;BME280;57919;56.194;95.716;2022-09-01T14:29:53;98718.66;;;11.94;82.93
70458;BME280;57919;56.194;95.716;2022-09-01T14:39:56;98735.94;;;11.93;84.32
70458;BME280;57919;56.194;95.716;2022-09-01T14:50:00;98729.09;;;11.72;85.26
70458;BME280;57919;56.194;95.716;2022-09-01T15:00:10;98726.44;;;11.62;85.55
70458;BME280;57919;56.194;95.716;2022-09-01T15:10:17;98699.44;;;11.88;84.64
70458;BME280;57919;56.194;95.716;2022-09-01T15:20:20;98650.63;;;12.06;84.52
70458;BME280;57919;56.194;95.716;2022-09-01T15:30:41;98694.78;;;11.98;85.05
70458;BME280;57919;56.194;95.716;2022-09-01T15:40:45;98680.22;;;11.99;84.88
70458;BME280;57919;56.194;95.716;2022-09-01T15:50:49;98667.06;;;12.04;84.88
70458;BME280;57919;56.194;95.716;2022-09-01T16:00:51;98683.41;;;11.94;84.97
70458;BME280;57919;56.194;95.716;2022-09-01T16:10:53;98698.16;;;12.18;84.73
70458;BME280;57919;56.194;95.716;2022-09-01T16:31:26;98683.50;;;11.85;84.96
70458;BME280;57919;56.194;95.716;2022-09-01T16:52:04;98636.00;;;11.99;84.26
70458;BME280;57919;56.194;95.716;2022-09-01T17:02:35;98632.97;;;12.02;84.20
70458;BME280;57919;56.194;95.716;2022-09-01T17:12:49;98624.31;;;11.98;84.12
70458;BME280;57919;56.194;95.716;2022-09-01T17:22:55;98595.47;;;11.71;84.53
70458;BME280;57919;56.194;95.716;2022-09-01T17:43:49;98722.00;;;11.25;85.94
70458;BME280;57919;56.194;95.716;2022-09-01T17:54:21;98784.13;;;10.90;86.55
70458;BME280;57919;56.194;95.716;2022-09-01T18:04:50;98702.66;;;10.93;85.80
70458;BME280;57919;56.194;95.716;2022-09-01T18:25:23;98686.16;;;11.14;85.72
70458;BME280;57919;56.194;95.716;2022-09-01T18:35:47;98650.81;;;11.33;85.01
70458;BME280;57919;56.194;95.716;2022-09-01T18:46:32;98631.16;;;11.31;84.92
70458;BME280;57919;56.194;95.716;2022-09-01T19:27:30;98595.28;;;11.11;84.98
70458;BME280;57919;56.194;95.716;2022-09-01T19:37:32;98608.81;;;11.11;85.04
70458;BME280;57919;56.194;95.716;2022-09-01T19:58:40;98596.34;;;11.18;84.77
70458;BME280;57919;56.194;95.716;2022-09-01T20:09:02;98588.22;;;11.00;85.08
70458;BME280;57919;56.194;95.716;2022-09-01T20:40:21;98552.91;;;11.02;85.81
70458;BME280;57919;56.194;95.716;2022-09-01T20:50:37;98541.91;;;11.21;85.53
70458;BME280;57919;56.194;95.716;2022-09-01T21:00:52;98532.53;;;11.33;85.21
70458;BME280;57919;56.194;95.716;2022-09-01T21:21:35;98601.53;;;11.47;84.92
70458;BME280;57919;56.194;95.716;2022-09-01T21:31:39;98569.81;;;11.40;84.98
70458;BME280;57919;56.194;95.716;2022-09-01T21:41:41;98575.38;;;11.38;85.25
70458;BME280;57919;56.194;95.716;2022-09-01T21:51:43;98529.88;;;11.42;84.95
70458;BME280;57919;56.194;95.716;2022-09-01T22:01:45;98501.25;;;11.39;85.00
70458;BME280;57919;56.194;95.716;2022-09-01T22:11:49;98473.28;;;11.30;85.23
70458;BME280;57919;56.194;95.716;2022-09-01T22:21:51;98471.56;;;11.29;85.14
70458;BME280;57919;56.194;95.716;2022-09-01T22:31:53;98478.47;;;11.24;85.64
70458;BME280;57919;56.194;95.716;2022-09-01T22:41:55;98476.34;;;11.36;85.41
70458;BME280;57919;56.194;95.716;2022-09-01T22:51:57;98464.50;;;11.37;85.12
70458;BME280;57919;56.194;95.716;2022-09-01T23:01:59;98487.84;;;11.55;84.96
70458;BME280;57919;56.194;95.716;2022-09-01T23:12:02;98473.44;;;11.55;84.69
70458;BME280;57919;56.194;95.716;2022-09-01T23:22:05;98487.72;;;11.65;84.80
70458;BME280;57919;56.194;95.716;2022-09-01T23:32:07;98474.50;;;11.62;84.76
70458;BME280;57919;56.194;95.716;2022-09-01T23:42:09;98484.66;;;11.60;84.85
70458;BME280;57919;56.194;95.716;2022-09-01T23:52:11;98470.16;;;11.43;85.06
